06:37 Rennrad Moetz - Achenseerunde - Haming - Silz - Moetz
Ort Moetz Datum 15.08.2017 08:49:07
Kategorie Rennrad
Distanz 200,32 Kilometer Steigung 1.364,0 Meter Gefälle -1.364,0 Meter
Gesamt Zeit 06:49:23 Aktiv 06:36:47 Pause 00:12:36
Durchs. Tempo 30,3 km/h Tempo max. 63,4 km/h Tempo min. 7,8 km/h
Kalorien 0 Durchs. HF 126 BPM HF max. 155 BPM
Wetter 23 °C Clear Min/Max: 16,5 °C/29,7 °C; Druck: 1020,0 mbar; Rel. Feuchte: 50,4%; Taupunkt: 12,9 °C; Windgeschwindigkeit: 9,1 km/h
Ausrüstung Bontrager - RL Road
Scott - Addict 20
Notiz Moetz - Buchen - Leutasch - Mittenwald - Kruen - Achensee - Jenbach - Innsbruck - Telfs - Haiming - Apfelstrasse - Silz - Moetz ... trocken, feines Radlwetter, nachmittags heiss, mittlerer bis starker Wind, in Summe mehr Rueckenwind - locker ... garmin connect
Splits
Distanz (km) Gesamt Zeit Split Zeit Split Tempo Split Tempo Höhenprofil (m)
1,00 00:02:07 00:02:07 00:02:08 28,2 -9,83
2,00 00:03:56 00:01:48 00:01:49 33,2 0,12
3,00 00:05:35 00:01:39 00:01:39 36,3 -0,65
4,00 00:07:23 00:01:47 00:01:48 33,5 -3,88
5,00 00:09:07 00:01:44 00:01:44 34,6 0,75
6,00 00:10:52 00:01:45 00:01:46 34,1 -0,48
7,00 00:12:38 00:01:45 00:01:45 34,2 -1,11
8,00 00:14:14 00:01:35 00:01:36 37,6 -7,48
9,00 00:15:57 00:01:43 00:01:44 34,8 -2,75
10,00 00:17:43 00:01:45 00:01:45 34,1 0,76
11,00 00:19:26 00:01:43 00:01:44 34,7 0,30
12,00 00:21:02 00:01:35 00:01:36 37,6 -6,28
13,00 00:22:42 00:01:40 00:01:40 36,0 0,02
14,00 00:24:55 00:02:13 00:02:13 27,0 14,27
15,00 00:28:37 00:03:41 00:03:41 16,3 50,97
16,00 00:33:57 00:05:19 00:05:20 11,3 99,96
17,00 00:39:10 00:05:13 00:05:14 11,5 94,26
18,00 00:44:44 00:05:33 00:05:34 10,8 88,73
19,00 00:50:22 00:05:38 00:05:38 10,6 93,88
20,00 00:55:35 00:05:13 00:05:13 11,5 81,41
21,00 01:01:00 00:05:24 00:05:24 11,1 92,78
22,00 01:03:30 00:02:29 00:02:30 24,0 10,70
23,00 01:04:43 00:01:13 00:01:14 48,8 -51,60
24,00 01:05:53 00:01:09 00:01:09 52,0 -31,58
25,00 01:07:29 00:01:36 00:01:36 37,4 -4,56
26,00 01:09:04 00:01:34 00:01:35 37,9 -16,25
27,00 01:10:20 00:01:16 00:01:16 47,1 -14,77
28,00 01:11:43 00:01:22 00:01:22 43,7 -16,26
29,00 01:13:31 00:01:48 00:01:48 33,2 -0,64
30,00 01:14:59 00:01:27 00:01:28 40,9 -12,49
31,00 01:16:22 00:01:22 00:01:23 43,4 -13,27
32,00 01:17:45 00:01:23 00:01:24 43,1 -7,79
33,00 01:19:11 00:01:26 00:01:26 41,9 -14,78
34,00 01:20:31 00:01:19 00:01:20 45,2 -11,47
35,00 01:21:48 00:01:17 00:01:17 46,5 -7,29
36,00 01:23:23 00:01:34 00:01:34 38,3 -10,69
37,00 01:24:55 00:01:32 00:01:32 39,0 -3,03
38,00 01:26:44 00:01:49 00:01:49 32,9 -6,35
39,00 01:28:25 00:01:41 00:01:41 35,6 -17,05
40,00 01:29:40 00:01:15 00:01:15 48,0 -59,66
41,00 01:31:24 00:01:43 00:01:44 34,6 -29,96
42,00 01:33:23 00:01:58 00:01:58 30,5 -4,76
43,00 01:34:56 00:01:33 00:01:33 38,5 0,08
44,00 01:36:29 00:01:32 00:01:33 38,8 -11,81
45,00 01:38:02 00:01:33 00:01:33 38,7 -10,66
46,00 01:39:45 00:01:43 00:01:44 34,8 -0,33
47,00 01:41:24 00:01:38 00:01:38 36,6 -9,15
48,00 01:43:01 00:01:36 00:01:37 37,3 -3,14
49,00 01:44:59 00:01:58 00:01:59 30,3 -6,90
50,00 01:46:38 00:01:38 00:01:39 36,5 -0,87
51,00 01:48:38 00:02:00 00:02:00 29,9 3,70
52,00 01:50:58 00:02:19 00:02:19 25,8 11,81
53,00 01:52:56 00:01:58 00:01:58 30,4 -4,24
54,00 01:54:36 00:01:39 00:01:40 36,2 -26,89
55,00 01:56:04 00:01:27 00:01:28 40,9 -13,46
56,00 01:58:07 00:02:03 00:02:03 29,2 15,03
57,00 01:59:36 00:01:28 00:01:29 40,5 -14,82
58,00 02:01:33 00:01:57 00:01:57 30,7 0,43
59,00 02:03:20 00:01:46 00:01:47 33,7 -2,29
60,00 02:04:43 00:01:23 00:01:23 43,3 -25,67
61,00 02:06:19 00:01:35 00:01:36 37,6 -7,34
62,00 02:07:53 00:01:34 00:01:34 38,1 -10,22
63,00 02:09:37 00:01:43 00:01:44 34,7 -2,12
64,00 02:11:19 00:01:42 00:01:42 35,3 13,13
65,00 02:14:03 00:02:44 00:02:44 21,9 -0,34
66,00 02:15:49 00:01:45 00:01:46 34,0 -14,40
67,00 02:17:27 00:01:37 00:01:38 36,8 -11,12
68,00 02:18:57 00:01:29 00:01:30 40,2 -1,94
69,00 02:20:35 00:01:38 00:01:38 36,7 -14,64
70,00 02:22:48 00:02:13 00:02:14 26,9 22,24
71,00 02:24:24 00:01:35 00:01:36 37,5 -15,84
72,00 02:26:07 00:01:42 00:01:43 35,1 -6,06
73,00 02:27:54 00:01:46 00:01:47 33,7 1,02
74,00 02:29:56 00:02:02 00:02:03 29,4 28,42
75,00 02:31:36 00:01:40 00:01:40 36,0 -30,31
76,00 02:33:21 00:01:44 00:01:45 34,4 8,19
77,00 02:34:57 00:01:36 00:01:36 37,4 -9,11
78,00 02:36:39 00:01:41 00:01:42 35,4 11,83
79,00 02:39:04 00:02:25 00:02:25 24,8 21,85
80,00 02:41:03 00:01:58 00:01:59 30,3 11,73
81,00 02:42:45 00:01:42 00:01:43 35,1 -1,89
82,00 02:45:26 00:02:40 00:02:41 22,4 28,20
83,00 02:47:12 00:01:45 00:01:46 34,0 -10,52
84,00 02:48:42 00:01:29 00:01:30 40,1 -5,70
85,00 02:50:38 00:01:56 00:01:56 30,9 18,05
86,00 02:52:56 00:02:17 00:02:18 26,2 17,10
87,00 02:55:45 00:02:49 00:02:50 21,2 24,13
88,00 02:57:39 00:01:53 00:01:54 31,6 8,10
89,00 02:59:47 00:02:08 00:02:08 28,0 9,47
90,00 03:02:06 00:02:18 00:02:19 25,9 4,36
91,00 03:04:12 00:02:05 00:02:06 28,7 5,64
92,00 03:06:24 00:02:11 00:02:12 27,3 6,88
93,00 03:08:32 00:02:08 00:02:09 28,0 11,21
94,00 03:10:47 00:02:14 00:02:15 26,8 12,96
95,00 03:13:37 00:02:49 00:02:50 21,2 -4,91
96,00 03:15:46 00:02:09 00:02:09 27,8 -0,55
97,00 03:17:59 00:02:12 00:02:13 27,1 3,82
98,00 03:20:00 00:02:01 00:02:01 29,7 -1,18
99,00 03:22:06 00:02:05 00:02:06 28,6 -3,25
100,00 03:24:11 00:02:05 00:02:05 28,7 1,92
101,00 03:26:10 00:01:58 00:01:59 30,3 -2,32
102,00 03:28:15 00:02:05 00:02:05 28,7 1,38
103,00 03:30:28 00:02:12 00:02:12 27,2 4,68
104,00 03:32:35 00:02:06 00:02:07 28,4 -1,17
105,00 03:35:05 00:02:29 00:02:30 24,0 24,62
106,00 03:37:27 00:02:22 00:02:23 25,2 -81,62
107,00 03:38:35 00:01:08 00:01:08 52,8 -106,72
108,00 03:39:33 00:00:57 00:00:57 62,7 -73,94
109,00 03:41:04 00:01:31 00:01:32 39,3 -81,00
110,00 03:43:11 00:02:06 00:02:07 28,4 -69,19
111,00 03:45:35 00:02:23 00:02:24 25,1 -19,89
112,00 03:47:36 00:02:01 00:02:02 29,6 1,41
113,00 03:49:41 00:02:04 00:02:04 28,9 3,27
114,00 03:51:31 00:01:50 00:01:50 32,7 -1,12
115,00 03:53:26 00:01:55 00:01:56 31,2 1,83
116,00 03:55:21 00:01:54 00:01:55 31,4 0,63
117,00 03:57:15 00:01:53 00:01:54 31,7 1,12
118,00 03:59:17 00:02:02 00:02:03 29,4 0,67
119,00 04:01:05 00:01:47 00:01:48 33,4 0,96
120,00 04:02:54 00:01:48 00:01:49 33,1 1,49
121,00 04:04:46 00:01:52 00:01:52 32,1 9,82
122,00 04:06:50 00:02:03 00:02:04 29,1 4,00
123,00 04:08:33 00:01:43 00:01:43 34,9 -0,31
124,00 04:10:28 00:01:55 00:01:55 31,2 -0,12
125,00 04:12:40 00:02:11 00:02:11 27,4 8,82
126,00 04:14:25 00:01:45 00:01:46 34,1 -9,98
127,00 04:16:16 00:01:50 00:01:51 32,5 0,16
128,00 04:18:07 00:01:51 00:01:51 32,4 6,72
129,00 04:20:19 00:02:12 00:02:12 27,3 8,14
130,00 04:22:16 00:01:56 00:01:56 30,9 -0,30
131,00 04:24:01 00:01:45 00:01:45 34,3 -5,11
132,00 04:25:58 00:01:57 00:01:57 30,7 -2,67
133,00 04:27:51 00:01:53 00:01:53 31,8 -0,84
134,00 04:30:07 00:02:15 00:02:16 26,5 17,28
135,00 04:32:07 00:02:00 00:02:00 29,9 -0,45
136,00 04:33:51 00:01:43 00:01:44 34,7 -11,28
137,00 04:35:47 00:01:55 00:01:56 31,1 2,83
138,00 04:38:09 00:02:22 00:02:22 25,3 -1,73
139,00 04:40:23 00:02:13 00:02:14 26,9 -0,49
140,00 04:42:33 00:02:09 00:02:10 27,7 3,28
141,00 04:44:43 00:02:10 00:02:10 27,6 -1,26
142,00 04:46:44 00:02:00 00:02:00 29,9 1,17
143,00 04:48:39 00:01:55 00:01:56 31,1 0,75
144,00 04:50:33 00:01:53 00:01:54 31,6 0,78
145,00 04:52:52 00:02:18 00:02:18 26,0 6,34
146,00 04:54:58 00:02:06 00:02:06 28,5 2,95
147,00 04:56:54 00:01:55 00:01:56 31,1 2,37
148,00 04:58:46 00:01:52 00:01:52 32,0 2,54
149,00 05:01:02 00:02:15 00:02:16 26,6 -4,37
150,00 05:03:05 00:02:03 00:02:03 29,2 2,24
151,00 05:05:02 00:01:57 00:01:58 30,6 10,01
152,00 05:07:48 00:02:45 00:02:45 21,8 13,31
153,00 05:09:43 00:01:54 00:01:55 31,4 12,47
154,00 05:11:14 00:01:31 00:01:32 39,3 -23,13
155,00 05:12:51 00:01:36 00:01:37 37,3 -3,50
156,00 05:14:47 00:01:56 00:01:57 30,9 8,56
157,00 05:16:27 00:01:39 00:01:39 36,2 -1,58
158,00 05:18:51 00:02:24 00:02:25 24,9 26,52
159,00 05:20:55 00:02:03 00:02:04 29,1 5,22
160,00 05:22:20 00:01:24 00:01:25 42,6 -13,98
161,00 05:24:09 00:01:49 00:01:50 32,8 1,71
162,00 05:25:48 00:01:38 00:01:38 36,6 -13,59
163,00 05:27:33 00:01:44 00:01:45 34,4 6,33
164,00 05:29:18 00:01:45 00:01:46 34,1 2,61
165,00 05:31:09 00:01:50 00:01:51 32,5 0,53
166,00 05:32:58 00:01:48 00:01:49 33,1 0,62
167,00 05:34:43 00:01:45 00:01:45 34,2 0,00
168,00 05:36:47 00:02:04 00:02:04 28,9 7,84
169,00 05:38:40 00:01:52 00:01:53 31,9 -3,86
170,00 05:40:29 00:01:49 00:01:49 33,0 6,02
171,00 05:42:19 00:01:50 00:01:50 32,6 -1,09
172,00 05:44:08 00:01:48 00:01:49 33,1 0,62
173,00 05:46:01 00:01:52 00:01:52 32,1 6,40
174,00 05:48:04 00:02:03 00:02:03 29,2 -1,31
175,00 05:49:44 00:01:40 00:01:40 35,9 0,18
176,00 05:51:23 00:01:39 00:01:39 36,3 2,56
177,00 05:53:08 00:01:44 00:01:44 34,6 7,41
178,00 05:54:53 00:01:45 00:01:45 34,2 0,92
179,00 05:56:38 00:01:45 00:01:45 34,2 -0,53
180,00 05:58:27 00:01:48 00:01:49 33,1 0,56
181,00 06:00:19 00:01:51 00:01:52 32,2 4,15
182,00 06:02:10 00:01:51 00:01:51 32,4 0,17
183,00 06:04:02 00:01:51 00:01:52 32,2 -0,03
184,00 06:05:49 00:01:47 00:01:47 33,5 5,43
185,00 06:07:40 00:01:50 00:01:51 32,5 7,85
186,00 06:09:49 00:02:08 00:02:09 28,0 8,10
187,00 06:11:44 00:01:54 00:01:55 31,3 5,96
188,00 06:13:35 00:01:51 00:01:51 32,4 3,25
189,00 06:15:26 00:01:51 00:01:51 32,4 3,26
190,00 06:17:13 00:01:46 00:01:47 33,7 3,40
191,00 06:19:01 00:01:48 00:01:48 33,2 -10,45
192,00 06:20:53 00:01:51 00:01:52 32,3 -4,94
193,00 06:22:42 00:01:49 00:01:49 32,9 -2,93
194,00 06:24:29 00:01:47 00:01:47 33,5 -2,93
195,00 06:26:18 00:01:48 00:01:48 33,2 1,42
196,00 06:28:11 00:01:53 00:01:54 31,7 -7,75
197,00 06:30:03 00:01:51 00:01:51 32,3 -5,81
198,00 06:32:03 00:02:00 00:02:00 29,9 1,63
199,00 06:33:49 00:01:46 00:01:46 34,0 -5,47
200,00 06:35:40 00:01:51 00:01:51 32,4 3,03
200,49 06:36:47 00:01:06 00:02:15 26,7 7,00